»·PEaware :: N2102W KEGE-KASE

N2102W :: KEGE-KASE

FLIGHT INFORMATION

Flight Status: Arrived
Operator: Privately registered:
United States
More flights under this callsign
Pilot: Eric G. (5941)
Aircraft: Cessna 525C Citation CJ4
(C25C)
More flights by this aircraft type
Origin: KEGE Eagle Co Regl
United States
Destination: KASE Aspen-Pitkin Co/Sardy
United States
More flights between these airports :: More routes between these airports
Route: +BEVVR1 RUBAY DBL
File this flight plan on PilotEdge
Remarks: NA
Altitude:
(Current/Filed)
17,000ft
Speed:
(Current/Filed)
250kts
Departed: 17-Oct-20 01:46 PM
Arrived: 17-Oct-20 02:10 PM
Distance/Time
Traveled:
26nm/0:24
Distance/Time
To Go:
Arrived

Flight Plot

Page will automatically refresh every two minutes.

Flight plan parsing failed; only flown route is shown


Map Options




Map Legend


Flown Route
Filed Route
Departure Airport
Arrival Airport
Navaid (VOR, NDB)
Fix

Horizontal Profiles

Position Reports

Time Latitude Longitude Heading Altitude Ground
Speed
17-Oct-20 13:19 39.641778 -106.907797 343 6530ft 0kts
17-Oct-20 13:20 39.641406 -106.907658 343 6530ft 2kts
17-Oct-20 13:21 39.640707 -106.907395 343 6530ft 2kts
17-Oct-20 13:22 39.640118 -106.907172 343 6531ft 0kts
17-Oct-20 13:23 39.641403 -106.907766 344 6529ft 4kts
17-Oct-20 13:24 39.641429 -106.907769 359 6529ft 0kts
17-Oct-20 13:25 39.641429 -106.907769 359 6529ft 0kts
17-Oct-20 13:26 39.641429 -106.907769 359 6529ft 0kts
17-Oct-20 13:27 39.641429 -106.907769 359 6529ft 0kts
17-Oct-20 13:28 39.641429 -106.907769 359 6529ft 0kts
17-Oct-20 13:29 39.641429 -106.907769 359 6529ft 0kts
17-Oct-20 13:30 39.641429 -106.907769 359 6529ft 0kts
17-Oct-20 13:31 39.641429 -106.907769 359 6529ft 0kts
17-Oct-20 13:32 39.641429 -106.907769 359 6529ft 0kts
17-Oct-20 13:33 39.641429 -106.907769 359 6529ft 0kts
17-Oct-20 13:34 39.641429 -106.907769 359 6529ft 0kts
17-Oct-20 13:35 39.641429 -106.907769 359 6529ft 0kts
17-Oct-20 13:36 39.641429 -106.907769 359 6529ft 0kts
17-Oct-20 13:37 39.641429 -106.907769 359 6529ft 0kts
17-Oct-20 13:38 39.641429 -106.907769 359 6529ft 0kts
17-Oct-20 13:39 39.641429 -106.907769 359 6529ft 0kts
17-Oct-20 13:40 39.642243 -106.906377 35 6534ft 7kts
17-Oct-20 13:41 39.643278 -106.901165 83 6548ft 12kts
17-Oct-20 13:42 39.643543 -106.900200 27 6551ft 0kts
17-Oct-20 13:43 39.643543 -106.900200 27 6551ft 0kts
17-Oct-20 13:44 39.644494 -106.900559 261 6551ft 6kts
17-Oct-20 13:45 39.638510 -106.941384 243 7221ft 216kts
17-Oct-20 13:46 39.594670 -107.006040 253 10724ft 258kts
17-Oct-20 13:47 39.618480 -107.092972 309 13212ft 252kts
17-Oct-20 13:48 39.673413 -107.122689 354 12896ft 194kts
17-Oct-20 13:49 39.715940 -107.099596 66 13183ft 222kts
17-Oct-20 13:51 39.742007 -107.007287 58 14109ft 289kts
17-Oct-20 13:52 39.784804 -106.924397 72 13090ft 259kts
17-Oct-20 13:53 39.808593 -106.843708 56 13712ft 235kts
17-Oct-20 13:54 39.846529 -106.775749 47 15040ft 230kts
17-Oct-20 13:55 39.842376 -106.705231 138 16280ft 224kts
17-Oct-20 13:56 39.789585 -106.649806 142 16987ft 273kts
17-Oct-20 13:57 39.724751 -106.583859 142 17017ft 308kts
17-Oct-20 13:58 39.656150 -106.513458 142 17027ft 318kts
17-Oct-20 13:59 39.581653 -106.454636 185 17030ft 320kts
17-Oct-20 14:00 39.530482 -106.539035 256 17012ft 321kts
17-Oct-20 14:01 39.506916 -106.646502 244 15838ft 288kts
17-Oct-20 14:02 39.481245 -106.734866 251 14397ft 229kts
17-Oct-20 14:03 39.463039 -106.809985 251 14031ft 218kts
17-Oct-20 14:04 39.441768 -106.895287 248 13569ft 265kts
17-Oct-20 14:04 39.412319 -106.950433 198 13448ft 210kts
17-Oct-20 14:06 39.346812 -106.932512 152 11514ft 234kts
17-Oct-20 14:06 39.302500 -106.905279 161 9119ft 175kts
17-Oct-20 14:08 39.255501 -106.884250 160 7998ft 130kts
17-Oct-20 14:08 39.228204 -106.871269 160 7713ft 96kts
17-Oct-20 14:10 39.223344 -106.867954 71 7752ft 0kts
17-Oct-20 14:10 39.223163 -106.867280 156 7755ft 0kts
17-Oct-20 14:11 39.223142 -106.867269 157 7755ft 0kts
17-Oct-20 14:12 39.223142 -106.867269 157 7755ft 0kts
17-Oct-20 14:13 39.223142 -106.867269 157 7755ft 0kts
17-Oct-20 14:14 39.223142 -106.867269 157 7755ft 0kts
17-Oct-20 14:15 39.223142 -106.867269 157 7755ft 0kts
17-Oct-20 14:16 39.223142 -106.867269 157 7755ft 0kts
17-Oct-20 14:17 39.223142 -106.867269 157 7755ft 0kts
17-Oct-20 14:18 39.223142 -106.867269 157 7755ft 0kts
17-Oct-20 14:19 39.223142 -106.867269 157 7755ft 0kts
17-Oct-20 14:20 39.222729 -106.867306 176 7757ft 7kts
17-Oct-20 14:21 39.218649 -106.865438 159 7790ft 16kts
17-Oct-20 14:22 39.214544 -106.863504 157 7821ft 20kts
17-Oct-20 14:23 39.212185 -106.862510 190 7839ft 0kts
17-Oct-20 14:24 39.212185 -106.862510 190 7839ft 0kts

Navigation Log

Ident Type
Flight plan parsing failed, navigation log unavailable